sensor_id;sensor_type;location;lat;lon;timestamp;pressure;altitude;pressure_sealevel;temperature;humidity
2294;BME280;1155;42.644;23.264;2023-04-09T00:00:08;60232.72;;;-140.67;100.00
2294;BME280;1155;42.644;23.264;2023-04-09T00:02:35;60206.09;;;-140.67;100.00
2294;BME280;1155;42.644;23.264;2023-04-09T00:05:04;60191.75;;;-140.67;100.00
2294;BME280;1155;42.644;23.264;2023-04-09T00:07:31;60204.03;;;-140.67;100.00
2294;BME280;1155;42.644;23.264;2023-04-09T00:09:58;60214.28;;;-140.67;100.00
2294;BME280;1155;42.644;23.264;2023-04-09T00:12:25;60236.81;;;-140.67;100.00
2294;BME280;1155;42.644;23.264;2023-04-09T00:14:52;60208.13;;;-140.67;100.00
2294;BME280;1155;42.644;23.264;2023-04-09T00:17:19;60185.59;;;-140.67;100.00
2294;BME280;1155;42.644;23.264;2023-04-09T00:19:47;60204.03;;;-140.67;100.00
2294;BME280;1155;42.644;23.264;2023-04-09T00:22:15;60177.41;;;-140.67;100.00
2294;BME280;1155;42.644;23.264;2023-04-09T00:24:42;60212.22;;;-140.67;100.00
2294;BME280;1155;42.644;23.264;2023-04-09T00:27:08;60202.00;;;-140.67;100.00
2294;BME280;1155;42.644;23.264;2023-04-09T00:29:35;60220.41;;;-140.67;100.00
2294;BME280;1155;42.644;23.264;2023-04-09T00:32:02;60228.63;;;-140.67;100.00
2294;BME280;1155;42.644;23.264;2023-04-09T00:34:29;60193.81;;;-140.67;100.00
2294;BME280;1155;42.644;23.264;2023-04-09T00:36:56;60228.63;;;-140.67;100.00
2294;BME280;1155;42.644;23.264;2023-04-09T00:39:24;60171.28;;;-140.67;100.00
2294;BME280;1155;42.644;23.264;2023-04-09T00:41:55;60199.94;;;-140.67;100.00
2294;BME280;1155;42.644;23.264;2023-04-09T00:44:22;60214.28;;;-140.67;100.00
2294;BME280;1155;42.644;23.264;2023-04-09T00:46:49;60228.63;;;-140.67;100.00
2294;BME280;1155;42.644;23.264;2023-04-09T00:49:16;60197.91;;;-140.67;100.00
2294;BME280;1155;42.644;23.264;2023-04-09T00:51:43;60208.13;;;-140.67;100.00
2294;BME280;1155;42.644;23.264;2023-04-09T00:54:11;60199.94;;;-140.67;100.00
2294;BME280;1155;42.644;23.264;2023-04-09T00:56:40;60214.28;;;-140.67;100.00
2294;BME280;1155;42.644;23.264;2023-04-09T00:59:10;60216.31;;;-140.67;100.00
2294;BME280;1155;42.644;23.264;2023-04-09T01:01:37;60230.66;;;-140.67;100.00
2294;BME280;1155;42.644;23.264;2023-04-09T01:04:04;60206.09;;;-140.67;100.00
2294;BME280;1155;42.644;23.264;2023-04-09T01:06:36;60240.91;;;-140.67;100.00
2294;BME280;1155;42.644;23.264;2023-04-09T01:09:08;60204.03;;;-140.67;100.00
2294;BME280;1155;42.644;23.264;2023-04-09T01:11:46;60232.72;;;-140.67;100.00
2294;BME280;1155;42.644;23.264;2023-04-09T01:14:22;60191.75;;;-140.67;100.00
2294;BME280;1155;42.644;23.264;2023-04-09T01:16:53;60220.41;;;-140.67;100.00
2294;BME280;1155;42.644;23.264;2023-04-09T01:19:38;60214.28;;;-140.67;100.00
2294;BME280;1155;42.644;23.264;2023-04-09T01:22:22;60210.19;;;-140.67;100.00
2294;BME280;1155;42.644;23.264;2023-04-09T01:24:59;60199.94;;;-140.67;100.00
2294;BME280;1155;42.644;23.264;2023-04-09T01:27:41;60189.72;;;-140.67;100.00
2294;BME280;1155;42.644;23.264;2023-04-09T01:30:14;60220.41;;;-140.67;100.00
2294;BME280;1155;42.644;23.264;2023-04-09T01:32:42;60202.00;;;-140.67;100.00
2294;BME280;1155;42.644;23.264;2023-04-09T01:35:09;60240.91;;;-140.67;100.00
2294;BME280;1155;42.644;23.264;2023-04-09T01:37:37;60214.28;;;-140.67;100.00
2294;BME280;1155;42.644;23.264;2023-04-09T01:40:06;60232.72;;;-140.67;100.00
2294;BME280;1155;42.644;23.264;2023-04-09T01:42:34;60216.31;;;-140.67;100.00
2294;BME280;1155;42.644;23.264;2023-04-09T01:45:03;60169.22;;;-140.67;100.00
2294;BME280;1155;42.644;23.264;2023-04-09T01:47:33;60208.13;;;-140.67;100.00
2294;BME280;1155;42.644;23.264;2023-04-09T01:50:00;60212.22;;;-140.67;100.00
2294;BME280;1155;42.644;23.264;2023-04-09T01:52:28;60216.31;;;-140.67;100.00
2294;BME280;1155;42.644;23.264;2023-04-09T01:54:55;60224.53;;;-140.67;100.00
2294;BME280;1155;42.644;23.264;2023-04-09T01:57:22;60240.91;;;-140.67;100.00
2294;BME280;1155;42.644;23.264;2023-04-09T01:59:50;60228.63;;;-140.67;100.00
2294;BME280;1155;42.644;23.264;2023-04-09T02:02:19;60224.53;;;-140.67;100.00
2294;BME280;1155;42.644;23.264;2023-04-09T02:04:56;60220.41;;;-140.67;100.00
2294;BME280;1155;42.644;23.264;2023-04-09T02:07:29;60224.53;;;-140.67;100.00
2294;BME280;1155;42.644;23.264;2023-04-09T02:09:59;60173.31;;;-140.67;100.00
2294;BME280;1155;42.644;23.264;2023-04-09T02:12:29;60218.38;;;-140.67;100.00
2294;BME280;1155;42.644;23.264;2023-04-09T02:14:57;60206.09;;;-140.67;100.00
2294;BME280;1155;42.644;23.264;2023-04-09T02:17:26;60234.75;;;-140.67;100.00
2294;BME280;1155;42.644;23.264;2023-04-09T02:19:54;60210.19;;;-140.67;100.00
2294;BME280;1155;42.644;23.264;2023-04-09T02:22:21;60199.94;;;-140.67;100.00
2294;BME280;1155;42.644;23.264;2023-04-09T02:24:48;60202.00;;;-140.67;100.00
2294;BME280;1155;42.644;23.264;2023-04-09T02:27:15;60195.84;;;-140.67;100.00
2294;BME280;1155;42.644;23.264;2023-04-09T02:29:42;60216.31;;;-140.67;100.00
2294;BME280;1155;42.644;23.264;2023-04-09T02:32:09;60228.63;;;-140.67;100.00
2294;BME280;1155;42.644;23.264;2023-04-09T02:34:35;60234.75;;;-140.67;100.00
2294;BME280;1155;42.644;23.264;2023-04-09T02:37:04;60197.91;;;-140.67;100.00
2294;BME280;1155;42.644;23.264;2023-04-09T02:39:30;60195.84;;;-140.67;100.00
2294;BME280;1155;42.644;23.264;2023-04-09T02:42:00;60206.09;;;-140.67;100.00
2294;BME280;1155;42.644;23.264;2023-04-09T02:44:27;60228.63;;;-140.67;100.00
2294;BME280;1155;42.644;23.264;2023-04-09T02:46:54;60195.84;;;-140.67;100.00
2294;BME280;1155;42.644;23.264;2023-04-09T02:49:21;60224.53;;;-140.67;100.00
2294;BME280;1155;42.644;23.264;2023-04-09T02:51:48;60228.63;;;-140.67;100.00
2294;BME280;1155;42.644;23.264;2023-04-09T02:54:16;60247.03;;;-140.67;100.00
2294;BME280;1155;42.644;23.264;2023-04-09T02:56:43;60228.63;;;-140.67;100.00
2294;BME280;1155;42.644;23.264;2023-04-09T02:59:10;60234.75;;;-140.67;100.00
2294;BME280;1155;42.644;23.264;2023-04-09T03:01:37;60230.66;;;-140.67;100.00
2294;BME280;1155;42.644;23.264;2023-04-09T03:04:04;60220.41;;;-140.67;100.00
2294;BME280;1155;42.644;23.264;2023-04-09T03:06:30;60212.22;;;-140.67;100.00
2294;BME280;1155;42.644;23.264;2023-04-09T03:08:57;60232.72;;;-140.67;100.00
2294;BME280;1155;42.644;23.264;2023-04-09T03:11:26;60208.13;;;-140.67;100.00
2294;BME280;1155;42.644;23.264;2023-04-09T03:13:52;60210.19;;;-140.67;100.00
2294;BME280;1155;42.644;23.264;2023-04-09T03:16:19;60204.03;;;-140.67;100.00
2294;BME280;1155;42.644;23.264;2023-04-09T03:18:49;60208.13;;;-140.67;100.00
2294;BME280;1155;42.644;23.264;2023-04-09T03:21:16;60228.63;;;-140.67;100.00
2294;BME280;1155;42.644;23.264;2023-04-09T03:23:43;60204.03;;;-140.67;100.00
2294;BME280;1155;42.644;23.264;2023-04-09T03:26:09;60206.09;;;-140.67;100.00
2294;BME280;1155;42.644;23.264;2023-04-09T03:28:38;60224.53;;;-140.67;100.00
2294;BME280;1155;42.644;23.264;2023-04-09T03:31:05;60236.81;;;-140.67;100.00
2294;BME280;1155;42.644;23.264;2023-04-09T03:33:31;60212.22;;;-140.67;100.00
2294;BME280;1155;42.644;23.264;2023-04-09T03:35:58;60216.31;;;-140.67;100.00
2294;BME280;1155;42.644;23.264;2023-04-09T03:38:25;60214.28;;;-140.67;100.00
2294;BME280;1155;42.644;23.264;2023-04-09T03:40:52;60238.84;;;-140.67;100.00
2294;BME280;1155;42.644;23.264;2023-04-09T03:43:19;60208.13;;;-140.67;100.00
2294;BME280;1155;42.644;23.264;2023-04-09T03:45:47;60240.91;;;-140.67;100.00
2294;BME280;1155;42.644;23.264;2023-04-09T03:48:14;60195.84;;;-140.67;100.00
2294;BME280;1155;42.644;23.264;2023-04-09T03:50:41;60222.47;;;-140.67;100.00
2294;BME280;1155;42.644;23.264;2023-04-09T03:53:07;60210.19;;;-140.67;100.00
2294;BME280;1155;42.644;23.264;2023-04-09T03:55:36;60234.75;;;-140.67;100.00
2294;BME280;1155;42.644;23.264;2023-04-09T03:58:03;60214.28;;;-140.67;100.00
2294;BME280;1155;42.644;23.264;2023-04-09T04:00:30;60206.09;;;-140.67;100.00
2294;BME280;1155;42.644;23.264;2023-04-09T04:02:58;60212.22;;;-140.67;100.00
2294;BME280;1155;42.644;23.264;2023-04-09T04:05:25;60242.94;;;-140.67;100.00
2294;BME280;1155;42.644;23.264;2023-04-09T04:07:52;60195.84;;;-140.67;100.00
2294;BME280;1155;42.644;23.264;2023-04-09T04:10:19;60220.41;;;-140.67;100.00
2294;BME280;1155;42.644;23.264;2023-04-09T04:12:45;60220.41;;;-140.67;100.00
2294;BME280;1155;42.644;23.264;2023-04-09T04:15:12;60208.13;;;-140.67;100.00
2294;BME280;1155;42.644;23.264;2023-04-09T04:17:39;60245.00;;;-140.67;100.00
2294;BME280;1155;42.644;23.264;2023-04-09T04:20:09;60236.81;;;-140.67;100.00
2294;BME280;1155;42.644;23.264;2023-04-09T04:22:35;60212.22;;;-140.67;100.00
2294;BME280;1155;42.644;23.264;2023-04-09T04:25:02;60216.31;;;-140.67;100.00
2294;BME280;1155;42.644;23.264;2023-04-09T04:27:29;60208.13;;;-140.67;100.00
2294;BME280;1155;42.644;23.264;2023-04-09T04:29:56;60218.38;;;-140.67;100.00
2294;BME280;1155;42.644;23.264;2023-04-09T04:32:25;60232.72;;;-140.67;100.00
2294;BME280;1155;42.644;23.264;2023-04-09T04:34:52;60247.03;;;-140.67;100.00
2294;BME280;1155;42.644;23.264;2023-04-09T04:37:20;60212.22;;;-140.67;100.00
2294;BME280;1155;42.644;23.264;2023-04-09T04:39:47;60236.81;;;-140.67;100.00
2294;BME280;1155;42.644;23.264;2023-04-09T04:42:14;60216.31;;;-140.67;100.00
2294;BME280;1155;42.644;23.264;2023-04-09T04:44:41;60236.81;;;-140.67;100.00
2294;BME280;1155;42.644;23.264;2023-04-09T04:47:08;60208.13;;;-140.67;100.00
2294;BME280;1155;42.644;23.264;2023-04-09T04:49:34;60216.31;;;-140.67;100.00
2294;BME280;1155;42.644;23.264;2023-04-09T04:52:01;60206.09;;;-140.67;100.00
2294;BME280;1155;42.644;23.264;2023-04-09T04:54:29;60240.91;;;-140.67;100.00
2294;BME280;1155;42.644;23.264;2023-04-09T04:56:56;60220.41;;;-140.67;100.00
2294;BME280;1155;42.644;23.264;2023-04-09T04:59:24;60232.72;;;-140.67;100.00
2294;BME280;1155;42.644;23.264;2023-04-09T05:01:51;60226.56;;;-140.67;100.00
2294;BME280;1155;42.644;23.264;2023-04-09T05:04:18;60240.91;;;-140.67;100.00
2294;BME280;1155;42.644;23.264;2023-04-09T05:06:44;60222.47;;;-140.67;100.00
2294;BME280;1155;42.644;23.264;2023-04-09T05:09:11;60208.13;;;-140.67;100.00
2294;BME280;1155;42.644;23.264;2023-04-09T05:11:39;60222.47;;;-140.67;100.00
2294;BME280;1155;42.644;23.264;2023-04-09T05:14:06;60185.59;;;-140.67;100.00
2294;BME280;1155;42.644;23.264;2023-04-09T05:16:33;60212.22;;;-140.67;100.00
2294;BME280;1155;42.644;23.264;2023-04-09T05:19:00;60214.28;;;-140.67;100.00
2294;BME280;1155;42.644;23.264;2023-04-09T05:21:27;60212.22;;;-140.67;100.00
2294;BME280;1155;42.644;23.264;2023-04-09T05:23:54;60216.31;;;-140.67;100.00
2294;BME280;1155;42.644;23.264;2023-04-09T05:26:21;60202.00;;;-140.67;100.00
2294;BME280;1155;42.644;23.264;2023-04-09T05:28:49;60212.22;;;-140.67;100.00
2294;BME280;1155;42.644;23.264;2023-04-09T05:31:16;60191.75;;;-140.67;100.00
2294;BME280;1155;42.644;23.264;2023-04-09T05:33:43;60228.63;;;-140.67;100.00
2294;BME280;1155;42.644;23.264;2023-04-09T05:36:14;60214.28;;;-140.67;100.00
2294;BME280;1155;42.644;23.264;2023-04-09T05:38:41;60212.22;;;-140.67;100.00
2294;BME280;1155;42.644;23.264;2023-04-09T05:41:08;60220.41;;;-140.67;100.00
2294;BME280;1155;42.644;23.264;2023-04-09T05:43:35;60195.84;;;-140.67;100.00
2294;BME280;1155;42.644;23.264;2023-04-09T05:46:04;60189.72;;;-140.67;100.00
2294;BME280;1155;42.644;23.264;2023-04-09T05:48:30;60199.94;;;-140.67;100.00
2294;BME280;1155;42.644;23.264;2023-04-09T05:51:00;60204.03;;;-140.67;100.00
2294;BME280;1155;42.644;23.264;2023-04-09T05:53:27;60197.91;;;-140.67;100.00
2294;BME280;1155;42.644;23.264;2023-04-09T05:55:53;60199.94;;;-140.67;100.00
2294;BME280;1155;42.644;23.264;2023-04-09T05:58:20;60224.53;;;-140.67;100.00
2294;BME280;1155;42.644;23.264;2023-04-09T06:00:47;60199.94;;;-140.67;100.00
2294;BME280;1155;42.644;23.264;2023-04-09T06:03:17;60191.75;;;-140.67;100.00
2294;BME280;1155;42.644;23.264;2023-04-09T06:05:44;60183.56;;;-140.67;100.00
2294;BME280;1155;42.644;23.264;2023-04-09T06:08:11;60212.22;;;-140.67;100.00
2294;BME280;1155;42.644;23.264;2023-04-09T06:10:38;60191.75;;;-140.67;100.00
2294;BME280;1155;42.644;23.264;2023-04-09T06:13:05;60197.91;;;-140.67;100.00
2294;BME280;1155;42.644;23.264;2023-04-09T06:15:33;60195.84;;;-140.67;100.00
2294;BME280;1155;42.644;23.264;2023-04-09T06:18:00;60202.00;;;-140.67;100.00
2294;BME280;1155;42.644;23.264;2023-04-09T06:20:28;60183.56;;;-140.67;100.00
2294;BME280;1155;42.644;23.264;2023-04-09T06:22:55;60206.09;;;-140.67;100.00
2294;BME280;1155;42.644;23.264;2023-04-09T06:25:22;60224.53;;;-140.67;100.00
2294;BME280;1155;42.644;23.264;2023-04-09T06:27:49;60193.81;;;-140.67;100.00
2294;BME280;1155;42.644;23.264;2023-04-09T06:30:16;60212.22;;;-140.67;100.00
2294;BME280;1155;42.644;23.264;2023-04-09T06:32:44;60202.00;;;-140.67;100.00
2294;BME280;1155;42.644;23.264;2023-04-09T06:35:13;60191.75;;;-140.67;100.00
2294;BME280;1155;42.644;23.264;2023-04-09T06:37:41;60208.13;;;-140.67;100.00
2294;BME280;1155;42.644;23.264;2023-04-09T06:40:09;60175.38;;;-140.67;100.00
2294;BME280;1155;42.644;23.264;2023-04-09T06:42:36;60177.41;;;-140.67;100.00
2294;BME280;1155;42.644;23.264;2023-04-09T06:45:03;60187.66;;;-140.67;100.00
2294;BME280;1155;42.644;23.264;2023-04-09T06:47:33;60193.81;;;-140.67;100.00
2294;BME280;1155;42.644;23.264;2023-04-09T06:49:59;60193.81;;;-140.67;100.00
2294;BME280;1155;42.644;23.264;2023-04-09T06:52:26;60185.59;;;-140.67;100.00
2294;BME280;1155;42.644;23.264;2023-04-09T06:54:57;60195.84;;;-140.67;100.00
2294;BME280;1155;42.644;23.264;2023-04-09T06:57:24;60181.50;;;-140.67;100.00
2294;BME280;1155;42.644;23.264;2023-04-09T06:59:51;60212.22;;;-140.67;100.00
2294;BME280;1155;42.644;23.264;2023-04-09T07:02:18;60210.19;;;-140.67;100.00
2294;BME280;1155;42.644;23.264;2023-04-09T07:04:45;60202.00;;;-140.67;100.00
2294;BME280;1155;42.644;23.264;2023-04-09T07:07:13;60212.22;;;-140.67;95.92
2294;BME280;1155;42.644;23.264;2023-04-09T07:09:40;60173.31;;;-140.67;93.59
2294;BME280;1155;42.644;23.264;2023-04-09T07:12:08;60191.75;;;-140.67;95.23
2294;BME280;1155;42.644;23.264;2023-04-09T07:14:35;60175.38;;;-140.67;80.43
2294;BME280;1155;42.644;23.264;2023-04-09T07:17:02;60191.75;;;-140.67;84.33
2294;BME280;1155;42.644;23.264;2023-04-09T07:19:29;60183.56;;;-140.67;89.95
2294;BME280;1155;42.644;23.264;2023-04-09T07:21:56;60199.94;;;-140.67;82.90
2294;BME280;1155;42.644;23.264;2023-04-09T07:24:23;60193.81;;;-140.67;71.43
2294;BME280;1155;42.644;23.264;2023-04-09T07:26:50;60206.09;;;-140.67;72.93
2294;BME280;1155;42.644;23.264;2023-04-09T07:29:19;60167.19;;;-140.67;75.11
2294;BME280;1155;42.644;23.264;2023-04-09T07:31:46;60216.31;;;-140.67;84.38
2294;BME280;1155;42.644;23.264;2023-04-09T07:34:13;60212.22;;;-140.67;77.54
2294;BME280;1155;42.644;23.264;2023-04-09T07:36:40;60169.22;;;-140.67;59.90
2294;BME280;1155;42.644;23.264;2023-04-09T07:39:07;60171.28;;;-140.67;58.75
2294;BME280;1155;42.644;23.264;2023-04-09T07:41:33;60179.47;;;-140.67;55.02
2294;BME280;1155;42.644;23.264;2023-04-09T07:44:01;60204.03;;;-140.67;50.52
2294;BME280;1155;42.644;23.264;2023-04-09T07:46:29;60216.31;;;-140.67;50.34
2294;BME280;1155;42.644;23.264;2023-04-09T07:48:56;60202.00;;;-140.67;54.22
2294;BME280;1155;42.644;23.264;2023-04-09T07:51:23;60226.56;;;-140.67;50.11
2294;BME280;1155;42.644;23.264;2023-04-09T07:53:50;60214.28;;;-140.67;58.11
2294;BME280;1155;42.644;23.264;2023-04-09T07:56:17;60191.75;;;-140.67;51.05
2294;BME280;1155;42.644;23.264;2023-04-09T07:58:45;60208.13;;;-140.67;56.26
2294;BME280;1155;42.644;23.264;2023-04-09T08:01:13;60179.47;;;-140.67;60.09
2294;BME280;1155;42.644;23.264;2023-04-09T08:03:41;60204.03;;;-140.67;56.89
2294;BME280;1155;42.644;23.264;2023-04-09T08:06:11;60193.81;;;-140.67;51.58
2294;BME280;1155;42.644;23.264;2023-04-09T08:08:38;60210.19;;;-140.67;55.06
2294;BME280;1155;42.644;23.264;2023-04-09T08:11:05;60199.94;;;-140.67;53.19
2294;BME280;1155;42.644;23.264;2023-04-09T08:13:32;60173.31;;;-140.67;62.77
2294;BME280;1155;42.644;23.264;2023-04-09T08:15:59;60171.28;;;-140.67;57.12
2294;BME280;1155;42.644;23.264;2023-04-09T08:18:30;60187.66;;;-140.67;55.30
2294;BME280;1155;42.644;23.264;2023-04-09T08:20:58;60167.19;;;-140.67;52.45
2294;BME280;1155;42.644;23.264;2023-04-09T08:23:29;60212.22;;;-140.67;55.11
2294;BME280;1155;42.644;23.264;2023-04-09T08:25:56;60206.09;;;-140.67;54.40
2294;BME280;1155;42.644;23.264;2023-04-09T08:28:26;60183.56;;;-140.67;48.15
2294;BME280;1155;42.644;23.264;2023-04-09T08:30:53;60202.00;;;-140.67;46.83
2294;BME280;1155;42.644;23.264;2023-04-09T08:33:20;60195.84;;;-140.67;49.09
2294;BME280;1155;42.644;23.264;2023-04-09T08:36:05;60189.72;;;-140.67;48.11
2294;BME280;1155;42.644;23.264;2023-04-09T08:38:33;60208.13;;;-140.67;48.51
2294;BME280;1155;42.644;23.264;2023-04-09T08:41:00;60187.66;;;-140.67;47.62
2294;BME280;1155;42.644;23.264;2023-04-09T08:43:27;60183.56;;;-140.67;48.29
2294;BME280;1155;42.644;23.264;2023-04-09T08:46:01;60204.03;;;-140.67;45.42
2294;BME280;1155;42.644;23.264;2023-04-09T08:48:28;60179.47;;;-140.67;47.89
2294;BME280;1155;42.644;23.264;2023-04-09T08:50:57;60199.94;;;-140.67;46.45
2294;BME280;1155;42.644;23.264;2023-04-09T08:53:36;60212.22;;;-140.67;46.97
2294;BME280;1155;42.644;23.264;2023-04-09T08:56:04;60220.41;;;-140.67;47.06
2294;BME280;1155;42.644;23.264;2023-04-09T08:58:31;60185.59;;;-140.67;49.13
2294;BME280;1155;42.644;23.264;2023-04-09T09:00:58;60191.75;;;-140.67;nan
2294;BME280;1155;42.644;23.264;2023-04-09T09:03:26;60187.66;;;-140.67;51.48
2294;BME280;1155;42.644;23.264;2023-04-09T09:05:53;60183.56;;;-140.67;47.65
2294;BME280;1155;42.644;23.264;2023-04-09T09:08:22;60152.84;;;-140.67;52.73
2294;BME280;1155;42.644;23.264;2023-04-09T09:10:51;60204.03;;;-140.67;52.37
2294;BME280;1155;42.644;23.264;2023-04-09T09:13:22;60204.03;;;-140.67;49.38
2294;BME280;1155;42.644;23.264;2023-04-09T09:15:53;60197.91;;;-140.67;50.72
2294;BME280;1155;42.644;23.264;2023-04-09T09:18:37;60193.81;;;-140.67;47.87
2294;BME280;1155;42.644;23.264;2023-04-09T09:21:11;60171.28;;;-140.67;44.13
2294;BME280;1155;42.644;23.264;2023-04-09T09:23:38;60177.41;;;-140.67;46.04
2294;BME280;1155;42.644;23.264;2023-04-09T09:26:12;60204.03;;;-140.67;45.13
2294;BME280;1155;42.644;23.264;2023-04-09T09:28:39;60183.56;;;-140.67;48.48
2294;BME280;1155;42.644;23.264;2023-04-09T09:31:10;60199.94;;;-140.67;47.89
2294;BME280;1155;42.644;23.264;2023-04-09T09:33:37;60195.84;;;-140.67;50.09
2294;BME280;1155;42.644;23.264;2023-04-09T09:36:05;60183.56;;;-140.67;43.15
2294;BME280;1155;42.644;23.264;2023-04-09T09:38:34;60195.84;;;-140.67;42.72
2294;BME280;1155;42.644;23.264;2023-04-09T09:41:18;60208.13;;;-140.67;42.77
2294;BME280;1155;42.644;23.264;2023-04-09T09:43:45;60199.94;;;-140.67;42.02
2294;BME280;1155;42.644;23.264;2023-04-09T09:46:12;60204.03;;;-140.67;43.24
2294;BME280;1155;42.644;23.264;2023-04-09T09:48:39;60199.94;;;-140.67;44.06
2294;BME280;1155;42.644;23.264;2023-04-09T09:51:08;60206.09;;;-140.67;43.43
2294;BME280;1155;42.644;23.264;2023-04-09T09:53:36;60179.47;;;-140.67;42.28
2294;BME280;1155;42.644;23.264;2023-04-09T09:56:04;60183.56;;;-140.67;46.43
2294;BME280;1155;42.644;23.264;2023-04-09T09:58:36;60191.75;;;-140.67;46.63
2294;BME280;1155;42.644;23.264;2023-04-09T10:01:07;60181.50;;;-140.67;46.76
2294;BME280;1155;42.644;23.264;2023-04-09T10:03:35;60181.50;;;-140.67;46.28
2294;BME280;1155;42.644;23.264;2023-04-09T10:06:04;60208.13;;;-140.67;45.95
2294;BME280;1155;42.644;23.264;2023-04-09T10:08:37;60183.56;;;-140.67;45.31
2294;BME280;1155;42.644;23.264;2023-04-09T10:11:06;60171.28;;;-140.67;43.89
2294;BME280;1155;42.644;23.264;2023-04-09T10:13:37;60206.09;;;-140.67;46.89
2294;BME280;1155;42.644;23.264;2023-04-09T10:16:05;60183.56;;;-140.67;48.90
2294;BME280;1155;42.644;23.264;2023-04-09T10:18:32;60183.56;;;-140.67;46.89
2294;BME280;1155;42.644;23.264;2023-04-09T10:21:06;60206.09;;;-140.67;50.05
2294;BME280;1155;42.644;23.264;2023-04-09T10:23:38;60195.84;;;-140.67;45.67
2294;BME280;1155;42.644;23.264;2023-04-09T10:26:07;60185.59;;;-140.67;44.17
2294;BME280;1155;42.644;23.264;2023-04-09T10:28:37;60189.72;;;-140.67;44.23
2294;BME280;1155;42.644;23.264;2023-04-09T10:31:05;60189.72;;;-140.67;41.34
2294;BME280;1155;42.644;23.264;2023-04-09T10:33:36;60189.72;;;-140.67;39.71
2294;BME280;1155;42.644;23.264;2023-04-09T10:36:11;60191.75;;;-140.67;39.99
2294;BME280;1155;42.644;23.264;2023-04-09T10:38:39;60218.38;;;-140.67;42.46
2294;BME280;1155;42.644;23.264;2023-04-09T10:41:09;60187.66;;;-140.67;40.94
2294;BME280;1155;42.644;23.264;2023-04-09T10:43:41;60208.13;;;-140.67;39.36
2294;BME280;1155;42.644;23.264;2023-04-09T10:46:26;60210.19;;;-140.67;39.84
2294;BME280;1155;42.644;23.264;2023-04-09T10:49:09;60191.75;;;-140.67;40.07
2294;BME280;1155;42.644;23.264;2023-04-09T10:51:38;60224.53;;;-140.67;38.81
2294;BME280;1155;42.644;23.264;2023-04-09T10:54:05;60165.13;;;-140.67;38.67
2294;BME280;1155;42.644;23.264;2023-04-09T10:56:32;60191.75;;;-140.67;38.15
2294;BME280;1155;42.644;23.264;2023-04-09T10:59:00;60187.66;;;-140.67;36.71
2294;BME280;1155;42.644;23.264;2023-04-09T11:01:28;60187.66;;;-140.67;35.58
2294;BME280;1155;42.644;23.264;2023-04-09T11:04:07;60191.75;;;-140.67;36.07
2294;BME280;1155;42.644;23.264;2023-04-09T11:06:35;60208.13;;;-140.67;32.69
2294;BME280;1155;42.644;23.264;2023-04-09T11:09:02;60212.22;;;-140.67;33.37
2294;BME280;1155;42.644;23.264;2023-04-09T11:11:30;60181.50;;;-140.67;34.04
2294;BME280;1155;42.644;23.264;2023-04-09T11:13:58;60181.50;;;-140.67;32.63
2294;BME280;1155;42.644;23.264;2023-04-09T11:16:28;60214.28;;;-140.67;32.08
2294;BME280;1155;42.644;23.264;2023-04-09T11:18:55;60212.22;;;-140.67;29.95
2294;BME280;1155;42.644;23.264;2023-04-09T11:21:25;60224.53;;;-140.67;30.33
2294;BME280;1155;42.644;23.264;2023-04-09T11:23:53;60218.38;;;-140.67;29.40
2294;BME280;1155;42.644;23.264;2023-04-09T11:26:22;60212.22;;;-140.67;31.30
2294;BME280;1155;42.644;23.264;2023-04-09T11:28:49;60220.41;;;-140.67;32.17
2294;BME280;1155;42.644;23.264;2023-04-09T11:31:27;60189.72;;;-140.67;31.19
2294;BME280;1155;42.644;23.264;2023-04-09T11:33:54;60216.31;;;-140.67;31.58
2294;BME280;1155;42.644;23.264;2023-04-09T11:36:21;60183.56;;;-140.67;31.23
2294;BME280;1155;42.644;23.264;2023-04-09T11:38:48;60183.56;;;-140.67;31.48
2294;BME280;1155;42.644;23.264;2023-04-09T11:41:15;60210.19;;;-140.67;32.39
2294;BME280;1155;42.644;23.264;2023-04-09T11:43:42;60208.13;;;-140.67;35.31
2294;BME280;1155;42.644;23.264;2023-04-09T11:46:09;60193.81;;;-140.67;33.94
2294;BME280;1155;42.644;23.264;2023-04-09T11:48:38;60199.94;;;-140.67;33.57
2294;BME280;1155;42.644;23.264;2023-04-09T11:51:08;60202.00;;;-140.67;35.04
2294;BME280;1155;42.644;23.264;2023-04-09T11:53:36;60199.94;;;-140.67;34.31
2294;BME280;1155;42.644;23.264;2023-04-09T11:56:03;60189.72;;;-140.67;34.22
2294;BME280;1155;42.644;23.264;2023-04-09T11:58:30;60224.53;;;-140.67;35.51
2294;BME280;1155;42.644;23.264;2023-04-09T12:00:57;60210.19;;;-140.67;35.05
2294;BME280;1155;42.644;23.264;2023-04-09T12:03:29;60181.50;;;-140.67;38.17
2294;BME280;1155;42.644;23.264;2023-04-09T12:05:59;60216.31;;;-140.67;37.27
2294;BME280;1155;42.644;23.264;2023-04-09T12:08:26;60202.00;;;-140.67;37.41
2294;BME280;1155;42.644;23.264;2023-04-09T12:10:53;60214.28;;;-140.67;37.71
2294;BME280;1155;42.644;23.264;2023-04-09T12:13:20;60199.94;;;-140.67;35.88
2294;BME280;1155;42.644;23.264;2023-04-09T12:15:48;60191.75;;;-140.67;36.48
2294;BME280;1155;42.644;23.264;2023-04-09T12:18:15;60210.19;;;-140.67;34.83
2294;BME280;1155;42.644;23.264;2023-04-09T12:20:43;60183.56;;;-140.67;34.78
2294;BME280;1155;42.644;23.264;2023-04-09T12:23:12;60208.13;;;-140.67;33.56
2294;BME280;1155;42.644;23.264;2023-04-09T12:25:40;60208.13;;;-140.67;33.32
2294;BME280;1155;42.644;23.264;2023-04-09T12:28:09;60206.09;;;-140.67;32.07
2294;BME280;1155;42.644;23.264;2023-04-09T12:30:36;60191.75;;;-140.67;31.98
2294;BME280;1155;42.644;23.264;2023-04-09T12:33:03;60197.91;;;-140.67;32.91
2294;BME280;1155;42.644;23.264;2023-04-09T12:35:30;60185.59;;;-140.67;33.71
2294;BME280;1155;42.644;23.264;2023-04-09T12:37:58;60189.72;;;-140.67;35.19
2294;BME280;1155;42.644;23.264;2023-04-09T12:40:30;60187.66;;;-140.67;33.60
2294;BME280;1155;42.644;23.264;2023-04-09T12:42:57;60191.75;;;-140.67;32.33
2294;BME280;1155;42.644;23.264;2023-04-09T12:45:23;60159.00;;;-140.67;32.32
2294;BME280;1155;42.644;23.264;2023-04-09T12:47:52;60204.03;;;-140.67;33.54
2294;BME280;1155;42.644;23.264;2023-04-09T12:50:19;60171.28;;;-140.67;33.84